Aeroporto :







RITROVATECI SU...

 
LOGIN :

Iscrizione | Disclaimer

   EN    FR    IT 

 









Sommario :    VFR   VFR Marginale   IFR   IFR Intensivo   IFR Molto Intensivo
Visibilità : 
Base nubi : 
>= 8 km
>= 3000ft
5 / 8 km
1000 / 3000 ft
1500m / 5 km
500 / 1000 ft
800 / 1500m
200 / 500 ft
< 800m
< 200 ft
Simboli :   Temporali  Nebbia  Neve Forte  Precipitazioni Forti  Vento > 20 kt






- Altitudine del aeroporto : 244 ft
- Codice IATA : YQB


CYQB - Quebec - Jean Lesage Int.

ULTIMO METAR :
  • 120510Z 07012KT 3/8SM R06/5500VP6000FT/N SN VV008 M06/M07 A3011 RMK SN8 PRESFR SLP203

METARs OBSOLETI :
  • 120439Z 06009KT 1/2SM R06/P6000FT/D SN VV009 M07/M08 A3014 RMK SN8 SLP212
  • 120423Z 06008KT 3/4SM R06/P6000FT/U -SN VV011 M07/M08 A3014 RMK SN8 SLP214
  • 120411Z 05007KT 1SM R06/P6000FT/D -SN VV012 M07/M08 A3015 RMK SN8 PRESFR SLP216
  • 120400Z 04005KT 1SM R06/P6000FT/U -SN VV016 M07/M08 A3016 RMK SN8 /S04/ SLP219
  • 120300Z 07006KT 1 1/4SM -SN VV013 M07/M08 A3020 RMK SN8 /S02/ PRESFR SLP234
  • 120250Z 07006KT 1SM R06/P6000FT/D -SN VV014 M07/M08 A3020 RMK SN8 SLP235

TAF TAF CYQB
Valido dal 12 a 00 ore il 13 a 00 ore UTC


112338Z 1200/1224 06005KT P6SM -SN OVC060
TEMPO 1200/1202 2SM -SN OVC030
FM120200 06008KT 1SM -SN VV008
TEMPO 1202/1206 3SM -SN BKN020 OVC050
PROB30 1204/1206 1/2SM SN VV006
FM120600 06012G22KT 1/2SM SN VV006
PROB40 1206/1215 1/4SM +SN BLSN VV002
FM121600 VRB03KT 11/2SM -SN OVC015
FM122000 26012KT 21/2SM -SN BKN015 OVC030 RMK NXT FCST BY 120600Z
ATIS : ENG : +1 418-871-6893 FRA : +1 418-871-6895



MetMap, La meteo Aeronautica in un colpo d'occhio ! - Copyright ORBIFLY Dicembre 2007 - Disclaimer

ORBIFLY MET'MAP TEAM :

Programmazione e sviluppo : Alexandra Zaïnal
Concezione e sviluppo : Baudouin d'Aumeries
Co-Programmazione e sviluppo : Marc-Olivier Méhu
Supporto tecnico e logistico : Manuel Goepfert
Aiuto per la traduzione : Arnaldo La Scala

Contatto : metmap@orbifly.com




FONTI E CREDITI :

   NOAA